sensor_id;sensor_type;location;lat;lon;timestamp;temperature;humidity
16404;DHT22;8311;50.158;8.642;2023-10-09T00:00:58;20.60;64.20
16404;DHT22;8311;50.158;8.642;2023-10-09T00:04:05;20.60;64.20
16404;DHT22;8311;50.158;8.642;2023-10-09T00:07:03;20.60;64.20
16404;DHT22;8311;50.158;8.642;2023-10-09T00:10:01;20.50;64.20
16404;DHT22;8311;50.158;8.642;2023-10-09T00:13:04;20.60;65.00
16404;DHT22;8311;50.158;8.642;2023-10-09T00:16:04;20.60;64.20
16404;DHT22;8311;50.158;8.642;2023-10-09T00:19:06;20.60;64.20
16404;DHT22;8311;50.158;8.642;2023-10-09T00:22:09;20.50;64.20
16404;DHT22;8311;50.158;8.642;2023-10-09T00:25:12;20.50;64.20
16404;DHT22;8311;50.158;8.642;2023-10-09T00:28:15;20.50;64.20
16404;DHT22;8311;50.158;8.642;2023-10-09T00:31:12;20.50;64.20
16404;DHT22;8311;50.158;8.642;2023-10-09T00:34:08;20.50;64.20
16404;DHT22;8311;50.158;8.642;2023-10-09T00:37:08;20.60;64.20
16404;DHT22;8311;50.158;8.642;2023-10-09T00:40:08;20.50;64.20
16404;DHT22;8311;50.158;8.642;2023-10-09T00:43:06;20.60;64.20
16404;DHT22;8311;50.158;8.642;2023-10-09T00:46:06;20.50;64.20
16404;DHT22;8311;50.158;8.642;2023-10-09T00:49:09;20.50;64.20
16404;DHT22;8311;50.158;8.642;2023-10-09T00:52:03;20.50;64.10
16404;DHT22;8311;50.158;8.642;2023-10-09T00:55:04;20.50;64.20
16404;DHT22;8311;50.158;8.642;2023-10-09T00:58:08;20.50;64.20
16404;DHT22;8311;50.158;8.642;2023-10-09T01:01:04;20.50;64.20
16404;DHT22;8311;50.158;8.642;2023-10-09T01:04:01;20.50;64.20
16404;DHT22;8311;50.158;8.642;2023-10-09T01:07:07;20.50;64.10
16404;DHT22;8311;50.158;8.642;2023-10-09T01:10:07;20.50;64.10
16404;DHT22;8311;50.158;8.642;2023-10-09T01:13:03;20.50;64.20
16404;DHT22;8311;50.158;8.642;2023-10-09T01:15:58;20.50;64.90
16404;DHT22;8311;50.158;8.642;2023-10-09T01:18:54;20.50;65.00
16404;DHT22;8311;50.158;8.642;2023-10-09T01:21:50;20.50;64.10
16404;DHT22;8311;50.158;8.642;2023-10-09T01:24:45;20.50;64.20
16404;DHT22;8311;50.158;8.642;2023-10-09T01:27:41;20.50;64.10
16404;DHT22;8311;50.158;8.642;2023-10-09T01:30:35;20.50;64.20
16404;DHT22;8311;50.158;8.642;2023-10-09T01:33:33;20.50;64.10
16404;DHT22;8311;50.158;8.642;2023-10-09T01:36:28;20.50;64.10
16404;DHT22;8311;50.158;8.642;2023-10-09T01:39:25;20.50;64.20
16404;DHT22;8311;50.158;8.642;2023-10-09T01:42:21;20.50;64.10
16404;DHT22;8311;50.158;8.642;2023-10-09T01:45:27;20.50;64.10
16404;DHT22;8311;50.158;8.642;2023-10-09T01:48:20;20.50;64.10
16404;DHT22;8311;50.158;8.642;2023-10-09T01:51:17;20.50;64.20
16404;DHT22;8311;50.158;8.642;2023-10-09T01:54:12;20.50;64.10
16404;DHT22;8311;50.158;8.642;2023-10-09T01:57:21;20.50;64.10
16404;DHT22;8311;50.158;8.642;2023-10-09T02:00:16;20.50;64.10
16404;DHT22;8311;50.158;8.642;2023-10-09T02:03:15;20.50;64.10
16404;DHT22;8311;50.158;8.642;2023-10-09T02:06:10;20.50;64.10
16404;DHT22;8311;50.158;8.642;2023-10-09T02:09:22;20.50;64.10
16404;DHT22;8311;50.158;8.642;2023-10-09T02:12:24;20.50;64.10
16404;DHT22;8311;50.158;8.642;2023-10-09T02:15:26;20.50;64.10
16404;DHT22;8311;50.158;8.642;2023-10-09T02:18:43;20.50;64.10
16404;DHT22;8311;50.158;8.642;2023-10-09T02:21:46;20.40;64.00
16404;DHT22;8311;50.158;8.642;2023-10-09T02:24:40;20.40;64.00
16404;DHT22;8311;50.158;8.642;2023-10-09T02:27:52;20.40;64.00
16404;DHT22;8311;50.158;8.642;2023-10-09T02:30:47;20.40;64.00
16404;DHT22;8311;50.158;8.642;2023-10-09T02:33:41;20.40;64.00
16404;DHT22;8311;50.158;8.642;2023-10-09T02:36:36;20.50;64.10
16404;DHT22;8311;50.158;8.642;2023-10-09T02:39:34;20.40;64.00
16404;DHT22;8311;50.158;8.642;2023-10-09T02:42:35;20.40;64.00
16404;DHT22;8311;50.158;8.642;2023-10-09T02:45:35;20.40;64.00
16404;DHT22;8311;50.158;8.642;2023-10-09T02:48:39;20.50;64.10
16404;DHT22;8311;50.158;8.642;2023-10-09T02:51:37;20.40;64.00
16404;DHT22;8311;50.158;8.642;2023-10-09T02:54:40;20.40;64.00
16404;DHT22;8311;50.158;8.642;2023-10-09T02:57:34;20.40;64.00
16404;DHT22;8311;50.158;8.642;2023-10-09T03:00:29;20.50;64.10
16404;DHT22;8311;50.158;8.642;2023-10-09T03:03:25;20.40;64.00
16404;DHT22;8311;50.158;8.642;2023-10-09T03:06:20;20.40;64.00
16404;DHT22;8311;50.158;8.642;2023-10-09T03:09:17;20.40;64.00
16404;DHT22;8311;50.158;8.642;2023-10-09T03:12:11;20.40;64.00
16404;DHT22;8311;50.158;8.642;2023-10-09T03:15:06;20.40;64.00
16404;DHT22;8311;50.158;8.642;2023-10-09T03:18:01;20.40;64.00
16404;DHT22;8311;50.158;8.642;2023-10-09T03:20:56;20.40;64.00
16404;DHT22;8311;50.158;8.642;2023-10-09T03:23:51;20.40;64.00
16404;DHT22;8311;50.158;8.642;2023-10-09T03:26:44;20.40;64.00
16404;DHT22;8311;50.158;8.642;2023-10-09T03:29:38;20.40;64.00
16404;DHT22;8311;50.158;8.642;2023-10-09T03:32:31;20.40;64.00
16404;DHT22;8311;50.158;8.642;2023-10-09T03:35:25;20.40;63.90
16404;DHT22;8311;50.158;8.642;2023-10-09T03:38:21;20.40;63.90
16404;DHT22;8311;50.158;8.642;2023-10-09T03:41:15;20.40;63.90
16404;DHT22;8311;50.158;8.642;2023-10-09T03:44:11;20.40;63.90
16404;DHT22;8311;50.158;8.642;2023-10-09T03:47:06;20.40;63.90
16404;DHT22;8311;50.158;8.642;2023-10-09T03:50:02;20.40;63.90
16404;DHT22;8311;50.158;8.642;2023-10-09T03:53:13;20.40;63.90
16404;DHT22;8311;50.158;8.642;2023-10-09T03:56:08;20.40;63.90
16404;DHT22;8311;50.158;8.642;2023-10-09T03:59:05;20.40;63.90
16404;DHT22;8311;50.158;8.642;2023-10-09T04:02:02;20.40;63.90
16404;DHT22;8311;50.158;8.642;2023-10-09T04:04:56;20.40;63.90
16404;DHT22;8311;50.158;8.642;2023-10-09T04:07:49;20.40;63.90
16404;DHT22;8311;50.158;8.642;2023-10-09T04:10:45;20.40;63.90
16404;DHT22;8311;50.158;8.642;2023-10-09T04:13:51;20.40;64.00
16404;DHT22;8311;50.158;8.642;2023-10-09T04:16:45;20.40;63.90
16404;DHT22;8311;50.158;8.642;2023-10-09T04:19:44;20.40;63.90
16404;DHT22;8311;50.158;8.642;2023-10-09T04:23:03;20.40;63.90
16404;DHT22;8311;50.158;8.642;2023-10-09T04:25:57;20.40;63.90
16404;DHT22;8311;50.158;8.642;2023-10-09T04:28:53;20.40;63.90
16404;DHT22;8311;50.158;8.642;2023-10-09T04:31:46;20.40;63.90
16404;DHT22;8311;50.158;8.642;2023-10-09T04:34:44;20.40;63.90
16404;DHT22;8311;50.158;8.642;2023-10-09T04:37:41;20.40;63.90
16404;DHT22;8311;50.158;8.642;2023-10-09T04:40:36;20.40;63.90
16404;DHT22;8311;50.158;8.642;2023-10-09T04:43:43;20.40;63.90
16404;DHT22;8311;50.158;8.642;2023-10-09T04:46:38;20.40;63.90
16404;DHT22;8311;50.158;8.642;2023-10-09T04:49:37;20.40;63.90
16404;DHT22;8311;50.158;8.642;2023-10-09T04:52:43;20.40;63.80
16404;DHT22;8311;50.158;8.642;2023-10-09T04:55:45;20.40;63.80
16404;DHT22;8311;50.158;8.642;2023-10-09T04:58:47;20.40;63.80
16404;DHT22;8311;50.158;8.642;2023-10-09T05:01:42;20.40;63.80
16404;DHT22;8311;50.158;8.642;2023-10-09T05:04:38;20.40;63.80
16404;DHT22;8311;50.158;8.642;2023-10-09T05:07:33;20.40;63.80
16404;DHT22;8311;50.158;8.642;2023-10-09T05:10:40;20.40;63.80
16404;DHT22;8311;50.158;8.642;2023-10-09T05:13:46;20.40;63.80
16404;DHT22;8311;50.158;8.642;2023-10-09T05:16:51;20.40;63.80
16404;DHT22;8311;50.158;8.642;2023-10-09T05:19:47;20.40;63.80
16404;DHT22;8311;50.158;8.642;2023-10-09T05:23:14;20.40;63.80
16404;DHT22;8311;50.158;8.642;2023-10-09T05:26:15;20.40;63.90
16404;DHT22;8311;50.158;8.642;2023-10-09T05:29:29;20.30;63.70
16404;DHT22;8311;50.158;8.642;2023-10-09T05:32:35;20.40;63.70
16404;DHT22;8311;50.158;8.642;2023-10-09T05:35:41;20.40;63.80
16404;DHT22;8311;50.158;8.642;2023-10-09T05:38:54;20.40;63.80
16404;DHT22;8311;50.158;8.642;2023-10-09T05:42:06;20.40;63.80
16404;DHT22;8311;50.158;8.642;2023-10-09T05:45:02;20.30;63.70
16404;DHT22;8311;50.158;8.642;2023-10-09T05:48:15;20.40;63.80
16404;DHT22;8311;50.158;8.642;2023-10-09T05:51:28;20.40;63.80
16404;DHT22;8311;50.158;8.642;2023-10-09T05:54:45;20.40;63.80
16404;DHT22;8311;50.158;8.642;2023-10-09T05:58:00;20.40;63.80
16404;DHT22;8311;50.158;8.642;2023-10-09T06:01:11;20.40;63.70
16404;DHT22;8311;50.158;8.642;2023-10-09T06:04:18;20.40;63.70
16404;DHT22;8311;50.158;8.642;2023-10-09T06:07:14;20.40;63.70
16404;DHT22;8311;50.158;8.642;2023-10-09T06:10:15;20.40;63.70
16404;DHT22;8311;50.158;8.642;2023-10-09T06:13:11;20.30;63.70
16404;DHT22;8311;50.158;8.642;2023-10-09T06:16:18;20.40;63.70
16404;DHT22;8311;50.158;8.642;2023-10-09T06:19:34;20.30;63.60
16404;DHT22;8311;50.158;8.642;2023-10-09T06:22:36;20.40;63.70
16404;DHT22;8311;50.158;8.642;2023-10-09T06:25:47;20.30;63.70
16404;DHT22;8311;50.158;8.642;2023-10-09T06:28:43;20.40;63.70
16404;DHT22;8311;50.158;8.642;2023-10-09T06:31:42;20.30;63.60
16404;DHT22;8311;50.158;8.642;2023-10-09T06:34:51;20.30;63.60
16404;DHT22;8311;50.158;8.642;2023-10-09T06:37:47;20.30;63.60
16404;DHT22;8311;50.158;8.642;2023-10-09T06:40:59;20.30;63.60
16404;DHT22;8311;50.158;8.642;2023-10-09T06:44:09;20.30;63.60
16404;DHT22;8311;50.158;8.642;2023-10-09T06:47:22;20.30;63.60
16404;DHT22;8311;50.158;8.642;2023-10-09T06:50:16;20.30;63.60
16404;DHT22;8311;50.158;8.642;2023-10-09T06:53:37;20.30;63.60
16404;DHT22;8311;50.158;8.642;2023-10-09T06:56:53;20.30;63.60
16404;DHT22;8311;50.158;8.642;2023-10-09T07:00:05;20.30;63.60
16404;DHT22;8311;50.158;8.642;2023-10-09T07:03:16;20.30;63.50
16404;DHT22;8311;50.158;8.642;2023-10-09T07:06:12;20.30;63.50
16404;DHT22;8311;50.158;8.642;2023-10-09T07:09:17;20.30;63.50
16404;DHT22;8311;50.158;8.642;2023-10-09T07:12:13;20.30;63.50
16404;DHT22;8311;50.158;8.642;2023-10-09T07:15:13;20.30;63.50
16404;DHT22;8311;50.158;8.642;2023-10-09T07:18:21;20.30;63.50
16404;DHT22;8311;50.158;8.642;2023-10-09T07:21:33;20.40;63.60
16404;DHT22;8311;50.158;8.642;2023-10-09T07:24:29;20.30;63.50
16404;DHT22;8311;50.158;8.642;2023-10-09T07:27:30;20.30;63.50
16404;DHT22;8311;50.158;8.642;2023-10-09T07:30:37;20.30;63.50
16404;DHT22;8311;50.158;8.642;2023-10-09T07:33:30;20.30;63.50
16404;DHT22;8311;50.158;8.642;2023-10-09T07:36:44;20.30;63.50
16404;DHT22;8311;50.158;8.642;2023-10-09T07:39:41;20.30;63.50
16404;DHT22;8311;50.158;8.642;2023-10-09T07:42:42;20.30;63.50
16404;DHT22;8311;50.158;8.642;2023-10-09T07:45:44;20.30;63.40
16404;DHT22;8311;50.158;8.642;2023-10-09T07:48:55;20.30;63.50
16404;DHT22;8311;50.158;8.642;2023-10-09T07:51:49;20.30;63.50
16404;DHT22;8311;50.158;8.642;2023-10-09T07:54:45;20.30;63.40
16404;DHT22;8311;50.158;8.642;2023-10-09T07:57:45;20.30;63.50
16404;DHT22;8311;50.158;8.642;2023-10-09T08:00:44;20.30;63.40
16404;DHT22;8311;50.158;8.642;2023-10-09T08:03:57;20.30;63.40
16404;DHT22;8311;50.158;8.642;2023-10-09T08:06:54;20.30;63.40
16404;DHT22;8311;50.158;8.642;2023-10-09T08:10:12;20.40;63.50
16404;DHT22;8311;50.158;8.642;2023-10-09T08:13:23;20.30;63.40
16404;DHT22;8311;50.158;8.642;2023-10-09T08:16:30;20.30;63.40
16404;DHT22;8311;50.158;8.642;2023-10-09T08:19:29;20.30;63.40
16404;DHT22;8311;50.158;8.642;2023-10-09T08:22:44;20.30;63.40
16404;DHT22;8311;50.158;8.642;2023-10-09T08:25:43;20.30;63.40
16404;DHT22;8311;50.158;8.642;2023-10-09T08:28:49;20.30;63.40
16404;DHT22;8311;50.158;8.642;2023-10-09T08:31:43;20.30;63.40
16404;DHT22;8311;50.158;8.642;2023-10-09T08:34:39;20.30;63.40
16404;DHT22;8311;50.158;8.642;2023-10-09T08:37:43;20.30;63.40
16404;DHT22;8311;50.158;8.642;2023-10-09T08:40:40;20.30;63.40
16404;DHT22;8311;50.158;8.642;2023-10-09T08:43:37;20.30;63.40
16404;DHT22;8311;50.158;8.642;2023-10-09T08:46:32;20.30;63.40
16404;DHT22;8311;50.158;8.642;2023-10-09T08:49:30;20.30;63.40
16404;DHT22;8311;50.158;8.642;2023-10-09T08:52:25;20.30;63.40
16404;DHT22;8311;50.158;8.642;2023-10-09T08:55:19;20.30;63.40
16404;DHT22;8311;50.158;8.642;2023-10-09T08:58:14;20.30;63.40
16404;DHT22;8311;50.158;8.642;2023-10-09T09:01:17;20.30;63.40
16404;DHT22;8311;50.158;8.642;2023-10-09T09:04:34;20.30;63.30
16404;DHT22;8311;50.158;8.642;2023-10-09T09:07:30;20.30;63.30
16404;DHT22;8311;50.158;8.642;2023-10-09T09:10:29;20.30;63.30
16404;DHT22;8311;50.158;8.642;2023-10-09T09:13:27;20.30;63.20
16404;DHT22;8311;50.158;8.642;2023-10-09T09:16:25;20.40;63.30
16404;DHT22;8311;50.158;8.642;2023-10-09T09:19:31;20.40;63.30
16404;DHT22;8311;50.158;8.642;2023-10-09T09:22:25;20.40;63.30
16404;DHT22;8311;50.158;8.642;2023-10-09T09:25:18;20.40;63.20
16404;DHT22;8311;50.158;8.642;2023-10-09T09:28:16;20.30;63.20
16404;DHT22;8311;50.158;8.642;2023-10-09T09:31:14;20.40;63.30
16404;DHT22;8311;50.158;8.642;2023-10-09T09:34:09;20.40;63.20
16404;DHT22;8311;50.158;8.642;2023-10-09T09:37:08;20.40;63.30
16404;DHT22;8311;50.158;8.642;2023-10-09T09:40:06;20.30;64.00
16404;DHT22;8311;50.158;8.642;2023-10-09T09:43:08;20.30;63.20
16404;DHT22;8311;50.158;8.642;2023-10-09T09:46:13;20.30;63.20
16404;DHT22;8311;50.158;8.642;2023-10-09T09:49:10;20.40;63.20
16404;DHT22;8311;50.158;8.642;2023-10-09T09:52:09;20.40;63.20
16404;DHT22;8311;50.158;8.642;2023-10-09T09:55:06;20.40;63.20
16404;DHT22;8311;50.158;8.642;2023-10-09T09:58:06;20.30;63.20
16404;DHT22;8311;50.158;8.642;2023-10-09T10:01:11;20.40;63.20
16404;DHT22;8311;50.158;8.642;2023-10-09T10:04:19;20.40;63.20
16404;DHT22;8311;50.158;8.642;2023-10-09T10:07:15;20.40;63.20
16404;DHT22;8311;50.158;8.642;2023-10-09T10:10:35;20.40;63.20
16404;DHT22;8311;50.158;8.642;2023-10-09T10:13:55;20.40;63.20
16404;DHT22;8311;50.158;8.642;2023-10-09T10:17:03;20.40;63.20
16404;DHT22;8311;50.158;8.642;2023-10-09T10:20:07;20.40;63.20
16404;DHT22;8311;50.158;8.642;2023-10-09T10:23:18;20.40;63.20
16404;DHT22;8311;50.158;8.642;2023-10-09T10:26:17;20.40;63.20
16404;DHT22;8311;50.158;8.642;2023-10-09T10:29:14;20.40;63.20
16404;DHT22;8311;50.158;8.642;2023-10-09T10:32:14;20.40;63.20
16404;DHT22;8311;50.158;8.642;2023-10-09T10:35:14;20.40;63.20
16404;DHT22;8311;50.158;8.642;2023-10-09T10:38:23;20.40;63.20
16404;DHT22;8311;50.158;8.642;2023-10-09T10:41:18;20.40;63.20
16404;DHT22;8311;50.158;8.642;2023-10-09T10:44:14;20.40;63.20
16404;DHT22;8311;50.158;8.642;2023-10-09T10:47:27;20.40;63.20
16404;DHT22;8311;50.158;8.642;2023-10-09T10:50:28;20.40;63.30
16404;DHT22;8311;50.158;8.642;2023-10-09T10:53:28;20.40;63.20
16404;DHT22;8311;50.158;8.642;2023-10-09T10:56:27;20.40;63.30
16404;DHT22;8311;50.158;8.642;2023-10-09T10:59:30;20.40;63.40
16404;DHT22;8311;50.158;8.642;2023-10-09T11:02:28;20.40;63.40
16404;DHT22;8311;50.158;8.642;2023-10-09T11:05:25;20.40;63.40
16404;DHT22;8311;50.158;8.642;2023-10-09T11:08:24;20.40;63.40
16404;DHT22;8311;50.158;8.642;2023-10-09T11:11:19;20.40;63.30
16404;DHT22;8311;50.158;8.642;2023-10-09T11:14:13;20.50;63.40
16404;DHT22;8311;50.158;8.642;2023-10-09T11:17:15;20.40;63.30
16404;DHT22;8311;50.158;8.642;2023-10-09T11:20:17;20.40;63.20
16404;DHT22;8311;50.158;8.642;2023-10-09T11:23:19;20.50;63.40
16404;DHT22;8311;50.158;8.642;2023-10-09T11:26:21;20.40;63.30
16404;DHT22;8311;50.158;8.642;2023-10-09T11:29:18;20.50;63.30
16404;DHT22;8311;50.158;8.642;2023-10-09T11:32:16;20.50;63.30
16404;DHT22;8311;50.158;8.642;2023-10-09T11:35:12;20.50;63.30
16404;DHT22;8311;50.158;8.642;2023-10-09T11:38:11;20.50;63.40
16404;DHT22;8311;50.158;8.642;2023-10-09T11:41:15;20.50;63.30
16404;DHT22;8311;50.158;8.642;2023-10-09T11:44:14;20.50;63.30
16404;DHT22;8311;50.158;8.642;2023-10-09T11:47:16;20.60;63.30
16404;DHT22;8311;50.158;8.642;2023-10-09T11:50:40;20.60;63.30
16404;DHT22;8311;50.158;8.642;2023-10-09T11:53:43;20.60;63.30
16404;DHT22;8311;50.158;8.642;2023-10-09T11:56:39;20.60;63.20
16404;DHT22;8311;50.158;8.642;2023-10-09T11:59:35;20.60;63.20
16404;DHT22;8311;50.158;8.642;2023-10-09T12:02:30;20.60;63.20
16404;DHT22;8311;50.158;8.642;2023-10-09T12:05:24;20.60;63.20
16404;DHT22;8311;50.158;8.642;2023-10-09T12:08:20;20.60;63.20
16404;DHT22;8311;50.158;8.642;2023-10-09T12:11:15;20.60;63.20
16404;DHT22;8311;50.158;8.642;2023-10-09T12:14:17;20.60;63.20
16404;DHT22;8311;50.158;8.642;2023-10-09T12:17:15;20.60;63.10
16404;DHT22;8311;50.158;8.642;2023-10-09T12:20:09;20.60;63.10
16404;DHT22;8311;50.158;8.642;2023-10-09T12:23:06;20.60;63.10
16404;DHT22;8311;50.158;8.642;2023-10-09T12:25:59;20.60;63.00
16404;DHT22;8311;50.158;8.642;2023-10-09T12:28:52;20.60;63.00
16404;DHT22;8311;50.158;8.642;2023-10-09T12:31:46;20.60;63.00
16404;DHT22;8311;50.158;8.642;2023-10-09T12:34:40;20.60;63.00
16404;DHT22;8311;50.158;8.642;2023-10-09T12:37:36;20.60;63.00
16404;DHT22;8311;50.158;8.642;2023-10-09T12:40:29;20.60;63.00
16404;DHT22;8311;50.158;8.642;2023-10-09T12:43:23;20.60;63.00
16404;DHT22;8311;50.158;8.642;2023-10-09T12:46:19;20.60;63.00
16404;DHT22;8311;50.158;8.642;2023-10-09T12:49:17;20.60;63.00
16404;DHT22;8311;50.158;8.642;2023-10-09T12:52:10;20.60;63.00
16404;DHT22;8311;50.158;8.642;2023-10-09T12:55:08;20.60;63.00
16404;DHT22;8311;50.158;8.642;2023-10-09T12:58:12;20.60;63.00
16404;DHT22;8311;50.158;8.642;2023-10-09T13:01:07;20.60;63.00
16404;DHT22;8311;50.158;8.642;2023-10-09T13:04:03;20.60;63.00
16404;DHT22;8311;50.158;8.642;2023-10-09T13:07:04;20.60;63.00
16404;DHT22;8311;50.158;8.642;2023-10-09T13:09:59;20.60;63.00
16404;DHT22;8311;50.158;8.642;2023-10-09T13:13:01;20.60;63.00
16404;DHT22;8311;50.158;8.642;2023-10-09T13:15:58;20.60;63.00
16404;DHT22;8311;50.158;8.642;2023-10-09T13:18:52;20.60;63.00
16404;DHT22;8311;50.158;8.642;2023-10-09T13:21:45;20.60;63.00
16404;DHT22;8311;50.158;8.642;2023-10-09T13:24:41;20.60;63.00
16404;DHT22;8311;50.158;8.642;2023-10-09T13:27:34;20.60;63.00
16404;DHT22;8311;50.158;8.642;2023-10-09T13:30:30;20.60;63.00
16404;DHT22;8311;50.158;8.642;2023-10-09T13:33:30;20.60;63.00
16404;DHT22;8311;50.158;8.642;2023-10-09T13:36:29;20.60;63.00
16404;DHT22;8311;50.158;8.642;2023-10-09T13:39:24;20.60;63.00
16404;DHT22;8311;50.158;8.642;2023-10-09T13:42:20;20.60;63.00
16404;DHT22;8311;50.158;8.642;2023-10-09T13:45:16;20.60;63.00
16404;DHT22;8311;50.158;8.642;2023-10-09T13:48:09;20.60;63.00
16404;DHT22;8311;50.158;8.642;2023-10-09T13:51:04;20.60;63.00
16404;DHT22;8311;50.158;8.642;2023-10-09T13:53:59;20.60;63.00
16404;DHT22;8311;50.158;8.642;2023-10-09T13:56:52;20.60;63.00
16404;DHT22;8311;50.158;8.642;2023-10-09T13:59:47;20.60;63.00
16404;DHT22;8311;50.158;8.642;2023-10-09T14:02:41;20.60;63.00
16404;DHT22;8311;50.158;8.642;2023-10-09T14:05:35;20.60;63.00
16404;DHT22;8311;50.158;8.642;2023-10-09T14:08:43;20.50;63.00
16404;DHT22;8311;50.158;8.642;2023-10-09T14:11:36;20.50;63.00
16404;DHT22;8311;50.158;8.642;2023-10-09T14:14:33;20.50;63.00
16404;DHT22;8311;50.158;8.642;2023-10-09T14:17:31;20.50;63.00
16404;DHT22;8311;50.158;8.642;2023-10-09T14:20:25;20.60;63.00
16404;DHT22;8311;50.158;8.642;2023-10-09T14:23:22;20.60;63.20
16404;DHT22;8311;50.158;8.642;2023-10-09T14:26:27;20.50;63.00
16404;DHT22;8311;50.158;8.642;2023-10-09T14:29:21;20.50;63.00
16404;DHT22;8311;50.158;8.642;2023-10-09T14:32:18;20.50;63.00
16404;DHT22;8311;50.158;8.642;2023-10-09T14:35:13;20.50;63.00
16404;DHT22;8311;50.158;8.642;2023-10-09T14:38:06;20.50;63.80
16404;DHT22;8311;50.158;8.642;2023-10-09T14:41:06;20.50;63.00
16404;DHT22;8311;50.158;8.642;2023-10-09T14:44:04;20.50;63.00
16404;DHT22;8311;50.158;8.642;2023-10-09T14:46:57;20.50;63.00
16404;DHT22;8311;50.158;8.642;2023-10-09T14:49:50;20.50;63.00
16404;DHT22;8311;50.158;8.642;2023-10-09T14:52:47;20.50;63.10
16404;DHT22;8311;50.158;8.642;2023-10-09T14:55:40;20.50;63.00
16404;DHT22;8311;50.158;8.642;2023-10-09T14:58:37;20.50;63.00
16404;DHT22;8311;50.158;8.642;2023-10-09T15:01:31;20.50;63.00
16404;DHT22;8311;50.158;8.642;2023-10-09T15:04:25;20.50;63.00
16404;DHT22;8311;50.158;8.642;2023-10-09T15:07:18;20.50;63.00
16404;DHT22;8311;50.158;8.642;2023-10-09T15:10:32;20.50;63.00
16404;DHT22;8311;50.158;8.642;2023-10-09T15:13:25;20.50;63.00
16404;DHT22;8311;50.158;8.642;2023-10-09T15:16:19;20.50;63.00
16404;DHT22;8311;50.158;8.642;2023-10-09T15:19:18;20.50;63.00
16404;DHT22;8311;50.158;8.642;2023-10-09T15:22:21;20.50;63.00
16404;DHT22;8311;50.158;8.642;2023-10-09T15:25:14;20.50;63.00
16404;DHT22;8311;50.158;8.642;2023-10-09T15:28:10;20.50;63.00
16404;DHT22;8311;50.158;8.642;2023-10-09T15:31:07;20.40;62.90
16404;DHT22;8311;50.158;8.642;2023-10-09T15:34:03;20.50;63.00
16404;DHT22;8311;50.158;8.642;2023-10-09T15:37:00;20.50;63.00
16404;DHT22;8311;50.158;8.642;2023-10-09T15:39:55;20.50;63.00
16404;DHT22;8311;50.158;8.642;2023-10-09T15:42:48;20.50;63.00
16404;DHT22;8311;50.158;8.642;2023-10-09T15:45:44;20.50;63.10
16404;DHT22;8311;50.158;8.642;2023-10-09T15:48:41;20.40;63.00
16404;DHT22;8311;50.158;8.642;2023-10-09T15:51:34;20.40;63.00
16404;DHT22;8311;50.158;8.642;2023-10-09T15:54:28;20.40;63.00
16404;DHT22;8311;50.158;8.642;2023-10-09T15:57:22;20.40;63.00
16404;DHT22;8311;50.158;8.642;2023-10-09T16:00:16;20.40;63.00
16404;DHT22;8311;50.158;8.642;2023-10-09T16:03:12;20.40;63.00
16404;DHT22;8311;50.158;8.642;2023-10-09T16:06:06;20.50;63.00
16404;DHT22;8311;50.158;8.642;2023-10-09T16:09:03;20.40;63.00
16404;DHT22;8311;50.158;8.642;2023-10-09T16:11:57;20.40;63.00
16404;DHT22;8311;50.158;8.642;2023-10-09T16:14:51;20.40;63.00
16404;DHT22;8311;50.158;8.642;2023-10-09T16:17:46;20.40;63.00
16404;DHT22;8311;50.158;8.642;2023-10-09T16:20:43;20.40;63.00
16404;DHT22;8311;50.158;8.642;2023-10-09T16:23:37;20.40;63.10
16404;DHT22;8311;50.158;8.642;2023-10-09T16:26:30;20.40;63.10
16404;DHT22;8311;50.158;8.642;2023-10-09T16:29:31;20.40;63.10
16404;DHT22;8311;50.158;8.642;2023-10-09T16:32:24;20.40;63.10
16404;DHT22;8311;50.158;8.642;2023-10-09T16:35:17;20.40;63.10
16404;DHT22;8311;50.158;8.642;2023-10-09T16:38:16;20.40;63.10
16404;DHT22;8311;50.158;8.642;2023-10-09T16:41:12;20.40;63.10
16404;DHT22;8311;50.158;8.642;2023-10-09T16:44:05;20.40;63.20
16404;DHT22;8311;50.158;8.642;2023-10-09T16:47:03;20.40;63.20
16404;DHT22;8311;50.158;8.642;2023-10-09T16:49:56;20.40;63.10
16404;DHT22;8311;50.158;8.642;2023-10-09T16:52:50;20.40;63.20
16404;DHT22;8311;50.158;8.642;2023-10-09T16:55:44;20.40;63.10
16404;DHT22;8311;50.158;8.642;2023-10-09T16:58:37;20.40;63.10
16404;DHT22;8311;50.158;8.642;2023-10-09T17:01:31;20.40;63.20
16404;DHT22;8311;50.158;8.642;2023-10-09T17:04:25;20.40;63.20
16404;DHT22;8311;50.158;8.642;2023-10-09T17:07:19;20.40;63.20
16404;DHT22;8311;50.158;8.642;2023-10-09T17:10:16;20.40;63.10
16404;DHT22;8311;50.158;8.642;2023-10-09T17:13:13;20.40;63.20
16404;DHT22;8311;50.158;8.642;2023-10-09T17:16:13;20.40;63.20
16404;DHT22;8311;50.158;8.642;2023-10-09T17:19:09;20.40;63.20
16404;DHT22;8311;50.158;8.642;2023-10-09T17:22:06;20.40;63.20
16404;DHT22;8311;50.158;8.642;2023-10-09T17:25:08;20.40;63.20
16404;DHT22;8311;50.158;8.642;2023-10-09T17:28:03;20.40;63.20
16404;DHT22;8311;50.158;8.642;2023-10-09T17:31:02;20.40;63.20
16404;DHT22;8311;50.158;8.642;2023-10-09T17:33:56;20.40;63.20
16404;DHT22;8311;50.158;8.642;2023-10-09T17:36:49;20.40;63.20
16404;DHT22;8311;50.158;8.642;2023-10-09T17:39:42;20.40;63.20
16404;DHT22;8311;50.158;8.642;2023-10-09T17:42:36;20.40;63.20
16404;DHT22;8311;50.158;8.642;2023-10-09T17:45:37;20.40;63.20
16404;DHT22;8311;50.158;8.642;2023-10-09T17:48:34;20.30;63.10
16404;DHT22;8311;50.158;8.642;2023-10-09T17:51:28;20.40;63.20
16404;DHT22;8311;50.158;8.642;2023-10-09T17:54:21;20.40;63.20
16404;DHT22;8311;50.158;8.642;2023-10-09T17:57:15;20.40;63.20
16404;DHT22;8311;50.158;8.642;2023-10-09T18:00:09;20.30;63.10
16404;DHT22;8311;50.158;8.642;2023-10-09T18:03:14;20.30;63.10
16404;DHT22;8311;50.158;8.642;2023-10-09T18:06:08;20.30;63.10
16404;DHT22;8311;50.158;8.642;2023-10-09T18:09:05;20.30;63.10
16404;DHT22;8311;50.158;8.642;2023-10-09T18:12:07;20.40;63.20
16404;DHT22;8311;50.158;8.642;2023-10-09T18:15:02;20.30;63.10
16404;DHT22;8311;50.158;8.642;2023-10-09T18:17:56;20.30;63.10
16404;DHT22;8311;50.158;8.642;2023-10-09T18:20:52;20.30;63.10
16404;DHT22;8311;50.158;8.642;2023-10-09T18:23:47;20.30;63.10
16404;DHT22;8311;50.158;8.642;2023-10-09T18:26:40;20.30;63.20
16404;DHT22;8311;50.158;8.642;2023-10-09T18:29:33;20.30;63.10
16404;DHT22;8311;50.158;8.642;2023-10-09T18:32:28;20.30;63.10
16404;DHT22;8311;50.158;8.642;2023-10-09T18:35:22;20.30;63.10
16404;DHT22;8311;50.158;8.642;2023-10-09T18:38:16;20.30;63.20
16404;DHT22;8311;50.158;8.642;2023-10-09T18:41:11;20.30;63.10
16404;DHT22;8311;50.158;8.642;2023-10-09T18:44:05;20.30;63.10
16404;DHT22;8311;50.158;8.642;2023-10-09T18:47:01;20.30;63.20
16404;DHT22;8311;50.158;8.642;2023-10-09T18:49:56;20.30;63.10
16404;DHT22;8311;50.158;8.642;2023-10-09T18:52:50;20.30;63.10
16404;DHT22;8311;50.158;8.642;2023-10-09T18:55:44;20.30;63.10
16404;DHT22;8311;50.158;8.642;2023-10-09T18:58:42;20.30;63.10
16404;DHT22;8311;50.158;8.642;2023-10-09T19:01:35;20.30;63.20
16404;DHT22;8311;50.158;8.642;2023-10-09T19:04:29;20.30;63.10
16404;DHT22;8311;50.158;8.642;2023-10-09T19:07:22;20.30;63.20